Leland, Washington
Current Conditions -  °F | °C
As of 9:56 AM on Wednesday 28 Jan 2015 (Local Time) from KNUW Reporting Station
Overcast Overcast  
Wind Chill: 50°   Ceiling: 2900
Heat Index: 50°   Visibility: 10mi
Dew Point: 41°   Wind: 0mph
Humidity: 71%   Direction: NA
Pressure: 30.4"   Gusts: NA
Location:  48.026°N, 122.859°W
Report Text: KNUW 281756Z 00000KT 10SM FEW024 OVC029 10/05 A3040 RMK AO2 SLP299 60000 T01000050 10100 20083 53013 VISNO E $
Loading
Personal Weather Stations






























Interactive Weather Map New forecast layout! Learn more

10-Day Weather Forecast

Advertisements
Track Severe Weather on mobile